sensor_id;sensor_type;location;lat;lon;timestamp;P1;durP1;ratioP1;P2;durP2;ratioP2
1452;SDS011;720;47.738;7.998;2024-03-02T00:00:43;7.00;;;5.20;;
1452;SDS011;720;47.738;7.998;2024-03-02T00:03:11;6.50;;;5.75;;
1452;SDS011;720;47.738;7.998;2024-03-02T00:05:39;9.77;;;5.90;;
1452;SDS011;720;47.738;7.998;2024-03-02T00:08:05;9.57;;;5.53;;
1452;SDS011;720;47.738;7.998;2024-03-02T00:10:38;8.18;;;5.47;;
1452;SDS011;720;47.738;7.998;2024-03-02T00:13:05;10.70;;;6.70;;
1452;SDS011;720;47.738;7.998;2024-03-02T00:15:45;8.48;;;5.30;;
1452;SDS011;720;47.738;7.998;2024-03-02T00:18:13;6.05;;;4.65;;
1452;SDS011;720;47.738;7.998;2024-03-02T00:20:41;8.50;;;5.80;;
1452;SDS011;720;47.738;7.998;2024-03-02T00:23:08;8.68;;;7.30;;
1452;SDS011;720;47.738;7.998;2024-03-02T00:25:39;11.80;;;6.60;;
1452;SDS011;720;47.738;7.998;2024-03-02T00:28:21;8.45;;;5.20;;
1452;SDS011;720;47.738;7.998;2024-03-02T00:30:55;8.77;;;5.43;;
1452;SDS011;720;47.738;7.998;2024-03-02T00:33:23;7.78;;;5.30;;
1452;SDS011;720;47.738;7.998;2024-03-02T00:35:51;6.65;;;5.60;;
1452;SDS011;720;47.738;7.998;2024-03-02T00:38:17;8.30;;;6.38;;
1452;SDS011;720;47.738;7.998;2024-03-02T00:40:43;6.77;;;5.77;;
1452;SDS011;720;47.738;7.998;2024-03-02T00:43:56;7.68;;;5.65;;
1452;SDS011;720;47.738;7.998;2024-03-02T00:46:19;10.85;;;6.03;;
1452;SDS011;720;47.738;7.998;2024-03-02T00:48:55;5.80;;;4.32;;
1452;SDS011;720;47.738;7.998;2024-03-02T00:51:22;7.13;;;5.22;;
1452;SDS011;720;47.738;7.998;2024-03-02T00:53:49;7.82;;;5.00;;
1452;SDS011;720;47.738;7.998;2024-03-02T00:56:16;8.05;;;5.18;;
1452;SDS011;720;47.738;7.998;2024-03-02T00:58:42;9.20;;;7.50;;
1452;SDS011;720;47.738;7.998;2024-03-02T01:01:07;8.60;;;6.00;;
1452;SDS011;720;47.738;7.998;2024-03-02T01:03:34;11.13;;;6.68;;
1452;SDS011;720;47.738;7.998;2024-03-02T01:06:00;10.33;;;7.43;;
1452;SDS011;720;47.738;7.998;2024-03-02T01:08:26;6.90;;;6.23;;
1452;SDS011;720;47.738;7.998;2024-03-02T01:10:51;7.60;;;5.40;;
1452;SDS011;720;47.738;7.998;2024-03-02T01:13:17;11.60;;;6.70;;
1452;SDS011;720;47.738;7.998;2024-03-02T01:15:43;11.23;;;6.90;;
1452;SDS011;720;47.738;7.998;2024-03-02T01:18:08;10.80;;;6.97;;
1452;SDS011;720;47.738;7.998;2024-03-02T01:20:34;15.50;;;7.20;;
1452;SDS011;720;47.738;7.998;2024-03-02T01:23:00;10.00;;;7.40;;
1452;SDS011;720;47.738;7.998;2024-03-02T01:25:25;6.80;;;6.07;;
1452;SDS011;720;47.738;7.998;2024-03-02T01:27:51;10.53;;;7.20;;
1452;SDS011;720;47.738;7.998;2024-03-02T01:30:17;17.10;;;6.60;;
1452;SDS011;720;47.738;7.998;2024-03-02T01:32:42;10.57;;;7.17;;
1452;SDS011;720;47.738;7.998;2024-03-02T01:35:08;6.70;;;5.80;;
1452;SDS011;720;47.738;7.998;2024-03-02T01:37:34;6.33;;;5.07;;
1452;SDS011;720;47.738;7.998;2024-03-02T01:40:00;8.90;;;5.97;;
1452;SDS011;720;47.738;7.998;2024-03-02T01:42:25;9.60;;;6.63;;
1452;SDS011;720;47.738;7.998;2024-03-02T01:44:51;9.33;;;6.50;;
1452;SDS011;720;47.738;7.998;2024-03-02T01:47:17;6.87;;;5.17;;
1452;SDS011;720;47.738;7.998;2024-03-02T01:49:42;8.80;;;5.43;;
1452;SDS011;720;47.738;7.998;2024-03-02T01:52:08;5.80;;;5.10;;
1452;SDS011;720;47.738;7.998;2024-03-02T01:54:34;6.70;;;5.43;;
1452;SDS011;720;47.738;7.998;2024-03-02T01:57:00;9.37;;;6.23;;
1452;SDS011;720;47.738;7.998;2024-03-02T01:59:26;9.90;;;6.30;;
1452;SDS011;720;47.738;7.998;2024-03-02T02:01:52;6.07;;;5.43;;
1452;SDS011;720;47.738;7.998;2024-03-02T02:04:18;6.47;;;5.10;;
1452;SDS011;720;47.738;7.998;2024-03-02T02:06:46;10.60;;;6.78;;
1452;SDS011;720;47.738;7.998;2024-03-02T02:09:12;7.50;;;5.10;;
1452;SDS011;720;47.738;7.998;2024-03-02T02:11:38;8.70;;;5.57;;
1452;SDS011;720;47.738;7.998;2024-03-02T02:14:03;10.80;;;6.30;;
1452;SDS011;720;47.738;7.998;2024-03-02T02:16:31;10.05;;;5.82;;
1452;SDS011;720;47.738;7.998;2024-03-02T02:18:56;7.13;;;6.33;;
1452;SDS011;720;47.738;7.998;2024-03-02T02:21:25;8.30;;;6.17;;
1452;SDS011;720;47.738;7.998;2024-03-02T02:23:51;7.72;;;6.20;;
1452;SDS011;720;47.738;7.998;2024-03-02T02:26:16;6.80;;;6.20;;
1452;SDS011;720;47.738;7.998;2024-03-02T02:28:42;8.90;;;7.30;;
1452;SDS011;720;47.738;7.998;2024-03-02T02:31:12;8.18;;;6.70;;
1452;SDS011;720;47.738;7.998;2024-03-02T02:33:41;6.30;;;5.53;;
1452;SDS011;720;47.738;7.998;2024-03-02T02:36:07;9.75;;;6.63;;
1452;SDS011;720;47.738;7.998;2024-03-02T02:38:33;12.70;;;6.73;;
1452;SDS011;720;47.738;7.998;2024-03-02T02:41:03;8.27;;;5.82;;
1452;SDS011;720;47.738;7.998;2024-03-02T02:43:28;8.90;;;6.90;;
1452;SDS011;720;47.738;7.998;2024-03-02T02:45:54;12.10;;;7.97;;
1452;SDS011;720;47.738;7.998;2024-03-02T02:48:19;12.93;;;8.60;;
1452;SDS011;720;47.738;7.998;2024-03-02T02:50:45;8.77;;;6.83;;
1452;SDS011;720;47.738;7.998;2024-03-02T02:53:11;10.53;;;6.67;;
1452;SDS011;720;47.738;7.998;2024-03-02T02:55:36;10.43;;;7.40;;
1452;SDS011;720;47.738;7.998;2024-03-02T02:58:05;10.60;;;6.57;;
1452;SDS011;720;47.738;7.998;2024-03-02T03:00:31;8.30;;;6.28;;
1452;SDS011;720;47.738;7.998;2024-03-02T03:02:57;10.10;;;7.10;;
1452;SDS011;720;47.738;7.998;2024-03-02T03:05:23;11.73;;;6.87;;
1452;SDS011;720;47.738;7.998;2024-03-02T03:07:48;11.57;;;7.03;;
1452;SDS011;720;47.738;7.998;2024-03-02T03:10:15;10.77;;;7.05;;
1452;SDS011;720;47.738;7.998;2024-03-02T03:12:41;8.45;;;6.28;;
1452;SDS011;720;47.738;7.998;2024-03-02T03:15:10;12.82;;;7.25;;
1452;SDS011;720;47.738;7.998;2024-03-02T03:17:36;9.30;;;7.00;;
1452;SDS011;720;47.738;7.998;2024-03-02T03:20:02;14.43;;;7.57;;
1452;SDS011;720;47.738;7.998;2024-03-02T03:22:29;8.05;;;5.97;;
1452;SDS011;720;47.738;7.998;2024-03-02T03:24:56;8.52;;;6.60;;
1452;SDS011;720;47.738;7.998;2024-03-02T03:27:22;11.20;;;6.93;;
1452;SDS011;720;47.738;7.998;2024-03-02T03:29:47;11.13;;;7.90;;
1452;SDS011;720;47.738;7.998;2024-03-02T03:32:13;9.67;;;7.73;;
1452;SDS011;720;47.738;7.998;2024-03-02T03:34:39;7.63;;;6.18;;
1452;SDS011;720;47.738;7.998;2024-03-02T03:37:05;10.27;;;6.63;;
1452;SDS011;720;47.738;7.998;2024-03-02T03:39:31;13.70;;;8.20;;
1452;SDS011;720;47.738;7.998;2024-03-02T03:41:58;11.10;;;6.80;;
1452;SDS011;720;47.738;7.998;2024-03-02T03:44:24;10.17;;;7.10;;
1452;SDS011;720;47.738;7.998;2024-03-02T03:46:50;8.40;;;5.80;;
1452;SDS011;720;47.738;7.998;2024-03-02T03:49:15;6.83;;;5.03;;
1452;SDS011;720;47.738;7.998;2024-03-02T03:51:42;6.70;;;6.00;;
1452;SDS011;720;47.738;7.998;2024-03-02T03:54:08;6.67;;;4.43;;
1452;SDS011;720;47.738;7.998;2024-03-02T03:56:33;10.20;;;5.57;;
1452;SDS011;720;47.738;7.998;2024-03-02T03:58:59;8.63;;;6.20;;
1452;SDS011;720;47.738;7.998;2024-03-02T04:01:25;7.43;;;5.40;;
1452;SDS011;720;47.738;7.998;2024-03-02T04:03:50;9.10;;;5.70;;
1452;SDS011;720;47.738;7.998;2024-03-02T04:06:16;7.93;;;5.33;;
1452;SDS011;720;47.738;7.998;2024-03-02T04:08:42;7.97;;;5.22;;
1452;SDS011;720;47.738;7.998;2024-03-02T04:11:08;6.93;;;4.77;;
1452;SDS011;720;47.738;7.998;2024-03-02T04:13:33;7.70;;;5.13;;
1452;SDS011;720;47.738;7.998;2024-03-02T04:15:59;6.97;;;5.30;;
1452;SDS011;720;47.738;7.998;2024-03-02T04:18:25;6.57;;;4.83;;
1452;SDS011;720;47.738;7.998;2024-03-02T04:20:50;9.37;;;6.07;;
1452;SDS011;720;47.738;7.998;2024-03-02T04:23:16;5.93;;;4.60;;
1452;SDS011;720;47.738;7.998;2024-03-02T04:25:42;4.07;;;3.67;;
1452;SDS011;720;47.738;7.998;2024-03-02T04:28:07;5.13;;;3.73;;
1452;SDS011;720;47.738;7.998;2024-03-02T04:30:33;5.40;;;3.00;;
1452;SDS011;720;47.738;7.998;2024-03-02T04:32:58;8.70;;;5.10;;
1452;SDS011;720;47.738;7.998;2024-03-02T04:35:24;5.20;;;4.17;;
1452;SDS011;720;47.738;7.998;2024-03-02T04:37:50;4.80;;;3.75;;
1452;SDS011;720;47.738;7.998;2024-03-02T04:40:16;7.60;;;3.67;;
1452;SDS011;720;47.738;7.998;2024-03-02T04:42:42;7.23;;;4.13;;
1452;SDS011;720;47.738;7.998;2024-03-02T04:45:08;5.55;;;4.03;;
1452;SDS011;720;47.738;7.998;2024-03-02T04:47:34;6.18;;;3.35;;
1452;SDS011;720;47.738;7.998;2024-03-02T04:49:59;6.50;;;3.53;;
1452;SDS011;720;47.738;7.998;2024-03-02T04:52:25;15.10;;;5.93;;
1452;SDS011;720;47.738;7.998;2024-03-02T04:54:51;6.20;;;4.23;;
1452;SDS011;720;47.738;7.998;2024-03-02T04:57:35;8.25;;;4.45;;
1452;SDS011;720;47.738;7.998;2024-03-02T05:00:00;4.50;;;3.80;;
1452;SDS011;720;47.738;7.998;2024-03-02T05:02:26;8.30;;;4.10;;
1452;SDS011;720;47.738;7.998;2024-03-02T05:04:52;7.03;;;4.67;;
1452;SDS011;720;47.738;7.998;2024-03-02T05:07:17;5.70;;;3.60;;
1452;SDS011;720;47.738;7.998;2024-03-02T05:09:43;5.90;;;4.40;;
1452;SDS011;720;47.738;7.998;2024-03-02T05:12:09;6.33;;;3.53;;
1452;SDS011;720;47.738;7.998;2024-03-02T05:14:53;4.75;;;4.05;;
1452;SDS011;720;47.738;7.998;2024-03-02T05:17:19;10.30;;;5.80;;
1452;SDS011;720;47.738;7.998;2024-03-02T05:19:44;5.10;;;3.90;;
1452;SDS011;720;47.738;7.998;2024-03-02T05:22:10;12.67;;;5.10;;
1452;SDS011;720;47.738;7.998;2024-03-02T05:24:36;5.00;;;4.20;;
1452;SDS011;720;47.738;7.998;2024-03-02T05:27:01;7.90;;;3.40;;
1452;SDS011;720;47.738;7.998;2024-03-02T05:29:27;5.77;;;4.13;;
1452;SDS011;720;47.738;7.998;2024-03-02T05:31:53;6.23;;;4.50;;
1452;SDS011;720;47.738;7.998;2024-03-02T05:34:18;5.30;;;4.30;;
1452;SDS011;720;47.738;7.998;2024-03-02T05:36:44;7.40;;;5.00;;
1452;SDS011;720;47.738;7.998;2024-03-02T05:39:09;5.00;;;4.33;;
1452;SDS011;720;47.738;7.998;2024-03-02T05:41:35;7.73;;;4.37;;
1452;SDS011;720;47.738;7.998;2024-03-02T05:44:01;4.70;;;3.87;;
1452;SDS011;720;47.738;7.998;2024-03-02T05:46:27;4.90;;;4.00;;
1452;SDS011;720;47.738;7.998;2024-03-02T05:48:53;3.80;;;3.40;;
1452;SDS011;720;47.738;7.998;2024-03-02T05:51:18;4.03;;;3.63;;
1452;SDS011;720;47.738;7.998;2024-03-02T05:53:44;4.90;;;4.03;;
1452;SDS011;720;47.738;7.998;2024-03-02T05:56:09;7.30;;;2.83;;
1452;SDS011;720;47.738;7.998;2024-03-02T05:58:37;5.28;;;4.63;;
1452;SDS011;720;47.738;7.998;2024-03-02T06:01:15;6.63;;;4.43;;
1452;SDS011;720;47.738;7.998;2024-03-02T06:03:40;7.33;;;4.70;;
1452;SDS011;720;47.738;7.998;2024-03-02T06:06:06;7.17;;;4.63;;
1452;SDS011;720;47.738;7.998;2024-03-02T06:08:31;6.57;;;5.30;;
1452;SDS011;720;47.738;7.998;2024-03-02T06:10:57;6.20;;;4.03;;
1452;SDS011;720;47.738;7.998;2024-03-02T06:13:23;6.20;;;3.47;;
1452;SDS011;720;47.738;7.998;2024-03-02T06:15:50;6.32;;;2.75;;
1452;SDS011;720;47.738;7.998;2024-03-02T06:18:16;5.87;;;4.20;;
1452;SDS011;720;47.738;7.998;2024-03-02T06:20:41;6.53;;;4.40;;
1452;SDS011;720;47.738;7.998;2024-03-02T06:23:07;7.20;;;4.23;;
1452;SDS011;720;47.738;7.998;2024-03-02T06:25:33;5.07;;;3.90;;
1452;SDS011;720;47.738;7.998;2024-03-02T06:27:58;4.43;;;3.70;;
1452;SDS011;720;47.738;7.998;2024-03-02T06:30:24;7.97;;;5.70;;
1452;SDS011;720;47.738;7.998;2024-03-02T06:32:50;5.70;;;4.40;;
1452;SDS011;720;47.738;7.998;2024-03-02T06:35:15;4.10;;;3.70;;
1452;SDS011;720;47.738;7.998;2024-03-02T06:37:41;8.67;;;5.90;;
1452;SDS011;720;47.738;7.998;2024-03-02T06:40:07;4.90;;;3.97;;
1452;SDS011;720;47.738;7.998;2024-03-02T06:42:34;7.78;;;4.63;;
1452;SDS011;720;47.738;7.998;2024-03-02T06:45:00;7.50;;;5.25;;
1452;SDS011;720;47.738;7.998;2024-03-02T06:47:26;9.20;;;5.90;;
1452;SDS011;720;47.738;7.998;2024-03-02T06:49:52;6.73;;;4.67;;
1452;SDS011;720;47.738;7.998;2024-03-02T06:52:18;8.15;;;6.30;;
1452;SDS011;720;47.738;7.998;2024-03-02T06:54:45;5.80;;;4.72;;
1452;SDS011;720;47.738;7.998;2024-03-02T06:57:10;8.17;;;6.27;;
1452;SDS011;720;47.738;7.998;2024-03-02T06:59:36;5.73;;;4.77;;
1452;SDS011;720;47.738;7.998;2024-03-02T07:02:02;6.53;;;5.83;;
1452;SDS011;720;47.738;7.998;2024-03-02T07:04:27;6.90;;;4.87;;
1452;SDS011;720;47.738;7.998;2024-03-02T07:06:53;6.80;;;5.30;;
1452;SDS011;720;47.738;7.998;2024-03-02T07:09:20;5.35;;;4.82;;
1452;SDS011;720;47.738;7.998;2024-03-02T07:11:47;10.48;;;5.45;;
1452;SDS011;720;47.738;7.998;2024-03-02T07:14:13;7.38;;;4.47;;
1452;SDS011;720;47.738;7.998;2024-03-02T07:16:39;6.30;;;5.40;;
1452;SDS011;720;47.738;7.998;2024-03-02T07:19:05;6.93;;;4.10;;
1452;SDS011;720;47.738;7.998;2024-03-02T07:21:31;7.97;;;5.07;;
1452;SDS011;720;47.738;7.998;2024-03-02T07:23:58;7.95;;;4.68;;
1452;SDS011;720;47.738;7.998;2024-03-02T07:26:24;5.88;;;3.97;;
1452;SDS011;720;47.738;7.998;2024-03-02T07:28:50;6.30;;;4.30;;
1452;SDS011;720;47.738;7.998;2024-03-02T07:31:16;5.47;;;4.47;;
1452;SDS011;720;47.738;7.998;2024-03-02T07:33:45;9.23;;;4.23;;
1452;SDS011;720;47.738;7.998;2024-03-02T07:36:13;4.93;;;3.90;;
1452;SDS011;720;47.738;7.998;2024-03-02T07:38:40;4.83;;;3.80;;
1452;SDS011;720;47.738;7.998;2024-03-02T07:41:05;5.90;;;4.83;;
1452;SDS011;720;47.738;7.998;2024-03-02T07:43:32;4.17;;;3.77;;
1452;SDS011;720;47.738;7.998;2024-03-02T07:45:58;5.40;;;4.40;;
1452;SDS011;720;47.738;7.998;2024-03-02T07:48:24;3.70;;;3.40;;
1452;SDS011;720;47.738;7.998;2024-03-02T07:50:50;5.07;;;4.37;;
1452;SDS011;720;47.738;7.998;2024-03-02T07:53:15;3.57;;;3.27;;
1452;SDS011;720;47.738;7.998;2024-03-02T07:55:41;6.73;;;5.20;;
1452;SDS011;720;47.738;7.998;2024-03-02T07:58:07;4.73;;;4.33;;
1452;SDS011;720;47.738;7.998;2024-03-02T08:00:33;3.83;;;3.53;;
1452;SDS011;720;47.738;7.998;2024-03-02T08:03:00;3.27;;;3.03;;
1452;SDS011;720;47.738;7.998;2024-03-02T08:05:26;2.60;;;2.40;;
1452;SDS011;720;47.738;7.998;2024-03-02T08:07:52;3.60;;;3.20;;
1452;SDS011;720;47.738;7.998;2024-03-02T08:10:18;4.07;;;2.67;;
1452;SDS011;720;47.738;7.998;2024-03-02T08:12:44;3.77;;;3.03;;
1452;SDS011;720;47.738;7.998;2024-03-02T08:15:10;3.93;;;3.40;;
1452;SDS011;720;47.738;7.998;2024-03-02T08:17:38;3.37;;;3.07;;
1452;SDS011;720;47.738;7.998;2024-03-02T08:20:09;2.57;;;2.37;;
1452;SDS011;720;47.738;7.998;2024-03-02T08:22:36;2.60;;;2.40;;
1452;SDS011;720;47.738;7.998;2024-03-02T08:25:03;2.80;;;2.60;;
1452;SDS011;720;47.738;7.998;2024-03-02T08:27:29;3.07;;;2.40;;
1452;SDS011;720;47.738;7.998;2024-03-02T08:29:57;3.50;;;2.53;;
1452;SDS011;720;47.738;7.998;2024-03-02T08:32:22;2.60;;;2.40;;
1452;SDS011;720;47.738;7.998;2024-03-02T08:34:48;3.77;;;3.47;;
1452;SDS011;720;47.738;7.998;2024-03-02T08:37:13;3.10;;;2.53;;
1452;SDS011;720;47.738;7.998;2024-03-02T08:39:39;3.67;;;3.37;;
1452;SDS011;720;47.738;7.998;2024-03-02T08:42:05;3.83;;;3.43;;
1452;SDS011;720;47.738;7.998;2024-03-02T08:44:31;5.67;;;3.83;;
1452;SDS011;720;47.738;7.998;2024-03-02T08:46:56;4.63;;;4.23;;
1452;SDS011;720;47.738;7.998;2024-03-02T08:49:22;4.37;;;4.00;;
1452;SDS011;720;47.738;7.998;2024-03-02T08:51:47;4.50;;;4.10;;
1452;SDS011;720;47.738;7.998;2024-03-02T08:54:19;3.83;;;3.53;;
1452;SDS011;720;47.738;7.998;2024-03-02T08:56:46;4.30;;;3.90;;
1452;SDS011;720;47.738;7.998;2024-03-02T08:59:12;4.20;;;3.80;;
1452;SDS011;720;47.738;7.998;2024-03-02T09:01:38;4.70;;;3.77;;
1452;SDS011;720;47.738;7.998;2024-03-02T09:04:06;4.40;;;3.90;;
1452;SDS011;720;47.738;7.998;2024-03-02T09:06:33;4.47;;;4.00;;
1452;SDS011;720;47.738;7.998;2024-03-02T09:08:59;3.50;;;3.20;;
1452;SDS011;720;47.738;7.998;2024-03-02T09:11:25;3.13;;;2.80;;
1452;SDS011;720;47.738;7.998;2024-03-02T09:13:51;3.00;;;2.70;;
1452;SDS011;720;47.738;7.998;2024-03-02T09:16:18;4.43;;;3.33;;
1452;SDS011;720;47.738;7.998;2024-03-02T09:18:43;3.60;;;3.40;;
1452;SDS011;720;47.738;7.998;2024-03-02T09:21:09;3.43;;;2.33;;
1452;SDS011;720;47.738;7.998;2024-03-02T09:23:35;2.63;;;2.43;;
1452;SDS011;720;47.738;7.998;2024-03-02T09:26:00;4.37;;;3.70;;
1452;SDS011;720;47.738;7.998;2024-03-02T09:28:26;4.23;;;3.53;;
1452;SDS011;720;47.738;7.998;2024-03-02T09:30:52;3.53;;;3.23;;
1452;SDS011;720;47.738;7.998;2024-03-02T09:33:17;2.53;;;2.33;;
1452;SDS011;720;47.738;7.998;2024-03-02T09:35:43;2.80;;;2.57;;
1452;SDS011;720;47.738;7.998;2024-03-02T09:38:08;3.80;;;3.40;;
1452;SDS011;720;47.738;7.998;2024-03-02T09:40:34;1.90;;;1.80;;
1452;SDS011;720;47.738;7.998;2024-03-02T09:43:00;4.07;;;2.67;;
1452;SDS011;720;47.738;7.998;2024-03-02T09:45:28;2.20;;;1.50;;
1452;SDS011;720;47.738;7.998;2024-03-02T09:47:55;3.17;;;1.50;;
1452;SDS011;720;47.738;7.998;2024-03-02T09:50:21;2.30;;;1.83;;
1452;SDS011;720;47.738;7.998;2024-03-02T09:52:50;0.83;;;0.83;;
1452;SDS011;720;47.738;7.998;2024-03-02T09:55:15;0.80;;;0.80;;
1452;SDS011;720;47.738;7.998;2024-03-02T09:57:43;1.10;;;1.00;;
1452;SDS011;720;47.738;7.998;2024-03-02T10:00:09;1.90;;;1.80;;
1452;SDS011;720;47.738;7.998;2024-03-02T10:02:39;1.40;;;1.30;;
1452;SDS011;720;47.738;7.998;2024-03-02T10:05:11;0.90;;;0.90;;
1452;SDS011;720;47.738;7.998;2024-03-02T10:07:37;1.53;;;1.43;;
1452;SDS011;720;47.738;7.998;2024-03-02T10:10:15;1.03;;;0.90;;
1452;SDS011;720;47.738;7.998;2024-03-02T10:12:41;1.03;;;1.00;;
1452;SDS011;720;47.738;7.998;2024-03-02T10:15:07;2.17;;;1.03;;
1452;SDS011;720;47.738;7.998;2024-03-02T10:17:34;1.30;;;1.10;;
1452;SDS011;720;47.738;7.998;2024-03-02T10:20:00;1.67;;;1.13;;
1452;SDS011;720;47.738;7.998;2024-03-02T10:22:54;0.63;;;0.63;;
1452;SDS011;720;47.738;7.998;2024-03-02T10:25:32;1.10;;;1.00;;
1452;SDS011;720;47.738;7.998;2024-03-02T10:27:59;0.83;;;0.70;;
1452;SDS011;720;47.738;7.998;2024-03-02T10:30:28;1.87;;;1.57;;
1452;SDS011;720;47.738;7.998;2024-03-02T10:32:54;2.00;;;1.20;;
1452;SDS011;720;47.738;7.998;2024-03-02T10:35:21;3.00;;;0.87;;
1452;SDS011;720;47.738;7.998;2024-03-02T10:37:48;0.90;;;0.90;;
1452;SDS011;720;47.738;7.998;2024-03-02T10:40:23;1.33;;;0.80;;
1452;SDS011;720;47.738;7.998;2024-03-02T10:42:49;0.80;;;0.80;;
1452;SDS011;720;47.738;7.998;2024-03-02T10:45:19;2.60;;;0.90;;
1452;SDS011;720;47.738;7.998;2024-03-02T10:47:48;0.90;;;0.70;;
1452;SDS011;720;47.738;7.998;2024-03-02T10:50:15;1.03;;;0.93;;
1452;SDS011;720;47.738;7.998;2024-03-02T10:52:41;1.07;;;1.00;;
1452;SDS011;720;47.738;7.998;2024-03-02T10:55:07;0.73;;;0.73;;
1452;SDS011;720;47.738;7.998;2024-03-02T11:00:21;1.50;;;1.40;;
1452;SDS011;720;47.738;7.998;2024-03-02T11:02:56;1.17;;;1.07;;
1452;SDS011;720;47.738;7.998;2024-03-02T11:05:27;1.10;;;0.87;;
1452;SDS011;720;47.738;7.998;2024-03-02T11:08:03;1.60;;;1.00;;
1452;SDS011;720;47.738;7.998;2024-03-02T11:10:45;2.00;;;1.10;;
1452;SDS011;720;47.738;7.998;2024-03-02T11:13:23;0.80;;;0.80;;
1452;SDS011;720;47.738;7.998;2024-03-02T11:15:57;1.00;;;0.90;;
1452;SDS011;720;47.738;7.998;2024-03-02T11:18:27;1.33;;;0.90;;
1452;SDS011;720;47.738;7.998;2024-03-02T11:20:53;1.40;;;1.00;;
1452;SDS011;720;47.738;7.998;2024-03-02T11:23:19;1.43;;;1.10;;
1452;SDS011;720;47.738;7.998;2024-03-02T11:28:45;1.17;;;0.83;;
1452;SDS011;720;47.738;7.998;2024-03-02T11:31:11;1.43;;;1.33;;
1452;SDS011;720;47.738;7.998;2024-03-02T11:33:37;1.00;;;1.00;;
1452;SDS011;720;47.738;7.998;2024-03-02T11:36:03;0.93;;;0.90;;
1452;SDS011;720;47.738;7.998;2024-03-02T11:38:32;1.30;;;1.13;;
1452;SDS011;720;47.738;7.998;2024-03-02T11:41:02;1.23;;;1.13;;
1452;SDS011;720;47.738;7.998;2024-03-02T11:43:33;1.17;;;1.07;;
1452;SDS011;720;47.738;7.998;2024-03-02T11:46:04;4.70;;;1.50;;
1452;SDS011;720;47.738;7.998;2024-03-02T11:48:32;1.60;;;1.33;;
1452;SDS011;720;47.738;7.998;2024-03-02T11:51:00;1.37;;;1.17;;
1452;SDS011;720;47.738;7.998;2024-03-02T11:53:26;1.30;;;1.30;;
1452;SDS011;720;47.738;7.998;2024-03-02T11:55:59;1.93;;;1.50;;
1452;SDS011;720;47.738;7.998;2024-03-02T11:58:27;1.90;;;1.80;;
1452;SDS011;720;47.738;7.998;2024-03-02T12:00:53;2.40;;;2.20;;
1452;SDS011;720;47.738;7.998;2024-03-02T12:03:21;2.27;;;2.17;;
1452;SDS011;720;47.738;7.998;2024-03-02T12:05:50;2.73;;;2.40;;
1452;SDS011;720;47.738;7.998;2024-03-02T12:08:17;2.20;;;1.77;;
1452;SDS011;720;47.738;7.998;2024-03-02T12:10:43;3.30;;;2.13;;
1452;SDS011;720;47.738;7.998;2024-03-02T12:13:25;1.60;;;1.50;;
1452;SDS011;720;47.738;7.998;2024-03-02T12:15:52;1.53;;;1.43;;
1452;SDS011;720;47.738;7.998;2024-03-02T12:18:22;1.90;;;1.80;;
1452;SDS011;720;47.738;7.998;2024-03-02T12:20:49;2.20;;;1.67;;
1452;SDS011;720;47.738;7.998;2024-03-02T12:23:22;3.37;;;1.50;;
1452;SDS011;720;47.738;7.998;2024-03-02T12:25:47;3.27;;;1.90;;
1452;SDS011;720;47.738;7.998;2024-03-02T12:28:13;1.57;;;1.47;;
1452;SDS011;720;47.738;7.998;2024-03-02T12:30:39;2.20;;;1.53;;
1452;SDS011;720;47.738;7.998;2024-03-02T12:33:05;1.47;;;1.37;;
1452;SDS011;720;47.738;7.998;2024-03-02T12:35:30;1.23;;;1.13;;
1452;SDS011;720;47.738;7.998;2024-03-02T12:37:56;2.30;;;1.73;;
1452;SDS011;720;47.738;7.998;2024-03-02T12:40:23;2.90;;;1.47;;
1452;SDS011;720;47.738;7.998;2024-03-02T12:42:49;1.23;;;1.13;;
1452;SDS011;720;47.738;7.998;2024-03-02T12:45:15;1.53;;;1.43;;
1452;SDS011;720;47.738;7.998;2024-03-02T12:47:48;1.23;;;1.10;;
1452;SDS011;720;47.738;7.998;2024-03-02T12:50:14;1.37;;;1.27;;
1452;SDS011;720;47.738;7.998;2024-03-02T12:52:40;0.80;;;0.80;;
1452;SDS011;720;47.738;7.998;2024-03-02T12:55:06;1.20;;;1.07;;
1452;SDS011;720;47.738;7.998;2024-03-02T12:57:32;1.20;;;0.90;;
1452;SDS011;720;47.738;7.998;2024-03-02T12:59:59;2.00;;;1.17;;
1452;SDS011;720;47.738;7.998;2024-03-02T13:02:34;1.10;;;1.00;;
1452;SDS011;720;47.738;7.998;2024-03-02T13:05:00;1.07;;;1.07;;
1452;SDS011;720;47.738;7.998;2024-03-02T13:07:26;1.80;;;1.37;;
1452;SDS011;720;47.738;7.998;2024-03-02T13:09:53;1.37;;;1.27;;
1452;SDS011;720;47.738;7.998;2024-03-02T13:12:20;1.03;;;0.90;;
1452;SDS011;720;47.738;7.998;2024-03-02T13:14:53;1.20;;;1.10;;
1452;SDS011;720;47.738;7.998;2024-03-02T13:17:19;1.43;;;1.00;;
1452;SDS011;720;47.738;7.998;2024-03-02T13:19:57;1.50;;;1.10;;
1452;SDS011;720;47.738;7.998;2024-03-02T13:22:24;1.10;;;1.00;;
1452;SDS011;720;47.738;7.998;2024-03-02T13:24:50;1.20;;;1.10;;
1452;SDS011;720;47.738;7.998;2024-03-02T13:27:17;1.63;;;1.20;;
1452;SDS011;720;47.738;7.998;2024-03-02T13:29:46;1.23;;;0.80;;
1452;SDS011;720;47.738;7.998;2024-03-02T13:32:14;0.80;;;0.80;;
1452;SDS011;720;47.738;7.998;2024-03-02T13:34:41;0.80;;;0.80;;
1452;SDS011;720;47.738;7.998;2024-03-02T13:37:07;1.37;;;1.03;;
1452;SDS011;720;47.738;7.998;2024-03-02T13:39:33;1.10;;;0.80;;
1452;SDS011;720;47.738;7.998;2024-03-02T13:42:05;1.17;;;0.90;;
1452;SDS011;720;47.738;7.998;2024-03-02T13:44:34;0.70;;;0.60;;
1452;SDS011;720;47.738;7.998;2024-03-02T13:47:00;0.73;;;0.73;;
1452;SDS011;720;47.738;7.998;2024-03-02T13:49:26;1.23;;;0.77;;
1452;SDS011;720;47.738;7.998;2024-03-02T13:51:58;2.00;;;1.17;;
1452;SDS011;720;47.738;7.998;2024-03-02T13:54:25;1.57;;;1.10;;
1452;SDS011;720;47.738;7.998;2024-03-02T13:56:51;1.20;;;1.10;;
1452;SDS011;720;47.738;7.998;2024-03-02T13:59:17;9.40;;;6.20;;
1452;SDS011;720;47.738;7.998;2024-03-02T14:01:44;21.70;;;10.13;;
1452;SDS011;720;47.738;7.998;2024-03-02T14:04:09;4.47;;;3.17;;
1452;SDS011;720;47.738;7.998;2024-03-02T14:06:35;2.60;;;1.50;;
1452;SDS011;720;47.738;7.998;2024-03-02T14:09:01;3.40;;;3.10;;
1452;SDS011;720;47.738;7.998;2024-03-02T14:11:27;2.30;;;1.93;;
1452;SDS011;720;47.738;7.998;2024-03-02T14:13:52;4.90;;;2.33;;
1452;SDS011;720;47.738;7.998;2024-03-02T14:16:19;5.33;;;3.37;;
1452;SDS011;720;47.738;7.998;2024-03-02T14:18:45;4.67;;;2.63;;
1452;SDS011;720;47.738;7.998;2024-03-02T14:21:11;2.63;;;2.07;;
1452;SDS011;720;47.738;7.998;2024-03-02T14:23:37;2.23;;;2.03;;
1452;SDS011;720;47.738;7.998;2024-03-02T14:26:02;2.23;;;1.30;;
1452;SDS011;720;47.738;7.998;2024-03-02T14:28:28;1.70;;;1.60;;
1452;SDS011;720;47.738;7.998;2024-03-02T14:30:54;2.70;;;1.70;;
1452;SDS011;720;47.738;7.998;2024-03-02T14:33:20;2.60;;;1.17;;
1452;SDS011;720;47.738;7.998;2024-03-02T14:35:46;6.40;;;5.07;;
1452;SDS011;720;47.738;7.998;2024-03-02T14:38:12;3.13;;;1.90;;
1452;SDS011;720;47.738;7.998;2024-03-02T14:40:38;2.37;;;1.43;;
1452;SDS011;720;47.738;7.998;2024-03-02T14:43:03;2.67;;;1.53;;
1452;SDS011;720;47.738;7.998;2024-03-02T14:45:29;1.23;;;0.80;;
1452;SDS011;720;47.738;7.998;2024-03-02T14:47:55;1.00;;;0.90;;
1452;SDS011;720;47.738;7.998;2024-03-02T14:50:24;1.40;;;0.90;;
1452;SDS011;720;47.738;7.998;2024-03-02T14:52:53;3.03;;;1.13;;
1452;SDS011;720;47.738;7.998;2024-03-02T14:55:19;14.77;;;11.10;;
1452;SDS011;720;47.738;7.998;2024-03-02T14:57:44;6.07;;;4.23;;
1452;SDS011;720;47.738;7.998;2024-03-02T15:00:10;2.70;;;2.50;;
1452;SDS011;720;47.738;7.998;2024-03-02T15:02:37;1.13;;;1.10;;
1452;SDS011;720;47.738;7.998;2024-03-02T15:05:03;2.60;;;1.23;;
1452;SDS011;720;47.738;7.998;2024-03-02T15:07:30;0.80;;;0.80;;
1452;SDS011;720;47.738;7.998;2024-03-02T15:09:56;1.17;;;1.17;;
1452;SDS011;720;47.738;7.998;2024-03-02T15:12:22;2.30;;;1.27;;
1452;SDS011;720;47.738;7.998;2024-03-02T15:14:48;1.30;;;1.20;;
1452;SDS011;720;47.738;7.998;2024-03-02T15:17:14;1.97;;;0.87;;
1452;SDS011;720;47.738;7.998;2024-03-02T15:19:43;1.30;;;0.97;;
1452;SDS011;720;47.738;7.998;2024-03-02T15:22:09;3.77;;;1.60;;
1452;SDS011;720;47.738;7.998;2024-03-02T15:24:35;1.13;;;1.03;;
1452;SDS011;720;47.738;7.998;2024-03-02T15:27:01;2.40;;;2.00;;
1452;SDS011;720;47.738;7.998;2024-03-02T15:29:32;1.07;;;0.90;;
1452;SDS011;720;47.738;7.998;2024-03-02T15:31:58;1.13;;;1.13;;